SPHWE EPBC-EPWA
Flight info
| Callsign | SPHWE |
|---|---|
| Flight time | 0h -10m |
| Altitude | 5000 |
| Route | DCT |
| Aircraft | DA42/L-SBDGRY/S |
Departure
| Time | 2026-05-05 18:43 |
|---|---|
| Airport | Warsaw Babice Airport (EPBC) |
Arrival
| Time | 2026-05-05 18:32 |
|---|---|
| Airport | Warsaw Chopin Airport (EPWA) |
| Time | Latitude | Longitude | Altitude | Speed | Heading |
|---|---|---|---|---|---|
| 2026-05-05 18:32 | 52.26774 | 20.89777 | 347 ft | 0 kts | 191° |
| 2026-05-05 18:39 | 52.26761 | 20.89770 | 350 ft | 9 kts | 213° |
| 2026-05-05 18:40 | 52.26755 | 20.89724 | 347 ft | 0 kts | 296° |
| 2026-05-05 18:40 | 52.26794 | 20.89708 | 347 ft | 14 kts | 14° |
| 2026-05-05 18:40 | 52.26916 | 20.89761 | 352 ft | 20 kts | 12° |
| 2026-05-05 18:40 | 52.27027 | 20.89804 | 349 ft | 11 kts | 38° |
| 2026-05-05 18:41 | 52.27040 | 20.89856 | 350 ft | 1 kts | 101° |
| 2026-05-05 18:41 | 52.27033 | 20.89904 | 350 ft | 23 kts | 106° |
| 2026-05-05 18:41 | 52.26951 | 20.90468 | 355 ft | 75 kts | 101° |
| 2026-05-05 18:42 | 52.26829 | 20.91418 | 459 ft | 94 kts | 104° |
| 2026-05-05 18:42 | 52.26697 | 20.92570 | 561 ft | 111 kts | 103° |
| 2026-05-05 18:42 | 52.26520 | 20.93839 | 715 ft | 117 kts | 97° |
| 2026-05-05 18:42 | 52.26445 | 20.95157 | 919 ft | 117 kts | 98° |
| 2026-05-05 18:43 | 52.26345 | 20.96484 | 1122 ft | 119 kts | 100° |
| 2026-05-05 18:43 | 52.26266 | 20.97775 | 1312 ft | 109 kts | 99° |
| 2026-05-05 18:43 | 52.26205 | 20.98971 | 1489 ft | 107 kts | 99° |
| 2026-05-05 18:43 | 52.26149 | 21.00202 | 1497 ft | 113 kts | 100° |
| 2026-05-05 18:44 | 52.25977 | 21.01428 | 1492 ft | 108 kts | 129° |
| 2026-05-05 18:44 | 52.25503 | 21.02382 | 1502 ft | 109 kts | 133° |
| 2026-05-05 18:44 | 52.25050 | 21.03357 | 1503 ft | 108 kts | 133° |
| 2026-05-05 18:44 | 52.24567 | 21.04292 | 1410 ft | 107 kts | 139° |
| 2026-05-05 18:45 | 52.24068 | 21.05162 | 1259 ft | 102 kts | 136° |
| 2026-05-05 18:45 | 52.23583 | 21.05971 | 1116 ft | 99 kts | 137° |
| 2026-05-05 18:45 | 52.23123 | 21.06715 | 1090 ft | 89 kts | 137° |
| 2026-05-05 18:45 | 52.22707 | 21.07404 | 1083 ft | 80 kts | 137° |
| 2026-05-05 18:46 | 52.22301 | 21.08087 | 1092 ft | 88 kts | 137° |
| 2026-05-05 18:46 | 52.21755 | 21.08581 | 1113 ft | 95 kts | 168° |
| 2026-05-05 18:46 | 52.21164 | 21.08248 | 1113 ft | 101 kts | 233° |
| 2026-05-05 18:46 | 52.21052 | 21.07086 | 1119 ft | 108 kts | 263° |
| 2026-05-05 18:47 | 52.20903 | 21.05886 | 1110 ft | 106 kts | 246° |
| 2026-05-05 18:47 | 52.20673 | 21.04758 | 1107 ft | 106 kts | 256° |
| 2026-05-05 18:47 | 52.20957 | 21.03675 | 1095 ft | 111 kts | 326° |
| 2026-05-05 18:47 | 52.21700 | 21.03513 | 1096 ft | 107 kts | 0° |
| 2026-05-05 18:48 | 52.22443 | 21.03486 | 1102 ft | 108 kts | 359° |
| 2026-05-05 18:48 | 52.23149 | 21.03179 | 1097 ft | 105 kts | 312° |
| 2026-05-05 18:48 | 52.23211 | 21.02158 | 1092 ft | 94 kts | 229° |
| 2026-05-05 18:48 | 52.22635 | 21.01682 | 1100 ft | 95 kts | 201° |
| 2026-05-05 18:49 | 52.22037 | 21.01231 | 1108 ft | 94 kts | 203° |
| 2026-05-05 18:49 | 52.21423 | 21.00794 | 1100 ft | 97 kts | 202° |
| 2026-05-05 18:49 | 52.20815 | 21.00349 | 1100 ft | 95 kts | 202° |
| 2026-05-05 18:49 | 52.20212 | 20.99918 | 1100 ft | 95 kts | 202° |
| 2026-05-05 18:50 | 52.19588 | 20.99631 | 1096 ft | 95 kts | 169° |
| 2026-05-05 18:50 | 52.19175 | 21.00401 | 1098 ft | 98 kts | 111° |